createdAt,value
2023-03-06T00:01:41.972Z,30.17
2023-03-06T00:04:47.427Z,31.00
2023-03-06T00:07:52.971Z,31.73
2023-03-06T00:10:59.717Z,33.45
2023-03-06T00:14:05.492Z,30.70
2023-03-06T00:17:11.222Z,31.95
2023-03-06T00:20:17.402Z,34.75
2023-03-06T00:23:23.321Z,34.13
2023-03-06T00:26:29.093Z,33.85
2023-03-06T00:29:34.698Z,32.88
2023-03-06T00:32:40.190Z,33.60
2023-03-06T00:35:46.182Z,33.75
2023-03-06T00:38:51.742Z,32.92
2023-03-06T00:41:57.500Z,33.22
2023-03-06T00:45:04.198Z,33.92
2023-03-06T00:48:09.599Z,34.15
2023-03-06T00:51:15.115Z,31.08
2023-03-06T00:54:22.501Z,32.72
2023-03-06T00:57:28.186Z,33.97
2023-03-06T01:00:33.790Z,34.15
2023-03-06T01:03:39.452Z,34.17
2023-03-06T01:06:44.549Z,33.83
2023-03-06T01:09:50.226Z,32.75
2023-03-06T01:12:56.105Z,35.08
2023-03-06T01:16:09.730Z,32.45
2023-03-06T01:19:15.375Z,31.88
2023-03-06T01:22:20.698Z,33.75
2023-03-06T01:25:26.461Z,33.60
2023-03-06T01:28:34.294Z,35.05
2023-03-06T01:31:41.228Z,36.92
2023-03-06T01:34:46.978Z,34.75
2023-03-06T01:37:52.843Z,33.33
2023-03-06T01:40:58.934Z,33.55
2023-03-06T01:44:05.770Z,35.92
2023-03-06T01:47:11.454Z,31.70
2023-03-06T01:50:17.242Z,32.88
2023-03-06T01:53:23.295Z,33.08
2023-03-06T01:56:29.116Z,32.95
2023-03-06T01:59:38.566Z,32.63
2023-03-06T02:03:18.840Z,31.70
2023-03-06T02:06:24.656Z,31.55
2023-03-06T02:09:31.729Z,33.65
2023-03-06T02:12:37.865Z,34.92
2023-03-06T02:15:43.475Z,32.10
2023-03-06T02:18:50.945Z,34.38
2023-03-06T02:21:56.586Z,32.03
2023-03-06T02:25:13.901Z,32.85
2023-03-06T02:28:22.355Z,33.65
2023-03-06T02:31:32.478Z,34.13
2023-03-06T02:34:46.401Z,33.42
2023-03-06T02:37:52.749Z,32.80
2023-03-06T02:40:59.211Z,31.50
2023-03-06T02:44:08.442Z,32.35
2023-03-06T02:47:13.938Z,34.50
2023-03-06T02:50:20.138Z,36.08
2023-03-06T02:53:27.820Z,35.03
2023-03-06T02:56:33.620Z,34.75
2023-03-06T02:59:38.925Z,34.25
2023-03-06T03:02:45.957Z,34.40
2023-03-06T03:05:52.089Z,36.33
2023-03-06T03:09:04.896Z,34.72
2023-03-06T03:12:10.789Z,33.60
2023-03-06T03:15:17.815Z,34.45
2023-03-06T03:18:23.639Z,32.45
2023-03-06T03:21:29.596Z,31.88
2023-03-06T03:24:34.839Z,30.50
2023-03-06T03:27:40.827Z,34.67
2023-03-06T03:30:46.592Z,33.53
2023-03-06T03:33:51.987Z,33.42
2023-03-06T03:36:59.273Z,35.28
2023-03-06T03:40:07.439Z,35.65
2023-03-06T03:43:12.839Z,33.20
2023-03-06T03:46:18.446Z,35.00
2023-03-06T03:49:24.947Z,33.58
2023-03-06T03:52:31.758Z,34.17
2023-03-06T03:55:37.366Z,36.17
2023-03-06T03:58:43.208Z,35.58
2023-03-06T04:01:48.561Z,36.92
2023-03-06T04:04:54.066Z,37.30
2023-03-06T04:07:59.363Z,39.20
2023-03-06T04:11:05.295Z,38.97
2023-03-06T04:14:11.151Z,41.40
2023-03-06T04:17:16.481Z,39.13
2023-03-06T04:20:21.961Z,38.15
2023-03-06T04:23:28.624Z,39.75
2023-03-06T04:26:34.242Z,39.63
2023-03-06T04:29:39.767Z,40.35
2023-03-06T04:32:45.430Z,37.17
2023-03-06T04:35:50.851Z,39.20
2023-03-06T04:39:02.142Z,40.13
2023-03-06T04:42:07.469Z,37.88
2023-03-06T04:45:13.528Z,38.20
2023-03-06T04:48:18.951Z,39.00
2023-03-06T04:51:24.388Z,39.30
2023-03-06T04:54:29.822Z,40.70
2023-03-06T04:57:37.373Z,39.60
2023-03-06T05:00:43.077Z,39.35
2023-03-06T05:03:50.089Z,40.17
2023-03-06T05:06:55.810Z,37.50
2023-03-06T05:10:01.273Z,40.83
2023-03-06T05:13:06.416Z,40.28
2023-03-06T05:16:11.556Z,40.30
2023-03-06T05:19:16.952Z,44.75
2023-03-06T05:22:22.713Z,41.92
2023-03-06T05:25:27.883Z,42.58
2023-03-06T05:28:33.714Z,45.42
2023-03-06T05:31:38.951Z,46.00
2023-03-06T05:34:44.129Z,45.15
2023-03-06T05:37:50.231Z,46.33
2023-03-06T05:40:56.338Z,45.05
2023-03-06T05:44:01.474Z,55.03
2023-03-06T05:47:06.687Z,54.25
2023-03-06T05:50:14.203Z,54.38
2023-03-06T05:53:19.668Z,48.50
2023-03-06T05:56:24.797Z,50.00
2023-03-06T05:59:30.197Z,49.15
2023-03-06T06:02:35.639Z,49.40
2023-03-06T06:05:41.371Z,53.40
2023-03-06T06:08:46.661Z,51.70
2023-03-06T06:11:53.750Z,52.58
2023-03-06T06:14:59.052Z,53.78
2023-03-06T06:18:04.508Z,52.05
2023-03-06T06:21:12.666Z,51.00
2023-03-06T06:24:20.818Z,49.78
2023-03-06T06:27:26.321Z,51.58
2023-03-06T06:30:33.236Z,48.97
2023-03-06T06:33:39.877Z,49.28
2023-03-06T06:36:45.072Z,50.63
2023-03-06T06:39:51.091Z,50.65
2023-03-06T06:42:56.279Z,50.08
2023-03-06T06:46:32.112Z,50.05
2023-03-06T06:49:28.443Z,50.38
2023-03-06T06:52:33.860Z,51.15
2023-03-06T06:55:39.116Z,49.00
2023-03-06T06:58:44.804Z,48.90
2023-03-06T07:01:51.664Z,49.80
2023-03-06T07:05:04.175Z,51.42
2023-03-06T07:08:10.644Z,50.28
2023-03-06T07:11:18.292Z,51.33
2023-03-06T07:14:23.771Z,50.85
2023-03-06T07:17:29.405Z,52.72
2023-03-06T07:20:34.754Z,50.30
2023-03-06T07:23:40.699Z,52.20
2023-03-06T07:26:48.996Z,48.47
2023-03-06T07:29:54.393Z,49.17
2023-03-06T07:33:00.252Z,47.80
2023-03-06T07:36:12.795Z,48.78
2023-03-06T07:39:19.066Z,48.25
2023-03-06T07:42:24.711Z,49.22
2023-03-06T07:45:38.498Z,47.72
2023-03-06T07:48:44.850Z,48.10
2023-03-06T07:51:50.322Z,51.03
2023-03-06T07:54:55.612Z,47.67
2023-03-06T07:58:00.966Z,48.75
2023-03-06T08:01:09.228Z,49.95
2023-03-06T08:04:14.577Z,52.30
2023-03-06T08:07:20.523Z,51.42
2023-03-06T08:10:25.843Z,50.70
2023-03-06T08:13:31.656Z,51.20
2023-03-06T08:16:37.080Z,53.33
2023-03-06T08:19:42.514Z,51.47
2023-03-06T08:22:49.513Z,52.83
2023-03-06T08:26:04.719Z,54.63
2023-03-06T08:29:11.164Z,55.17
2023-03-06T08:32:16.339Z,52.92
2023-03-06T08:35:22.057Z,52.95
2023-03-06T08:38:27.484Z,53.25
2023-03-06T08:41:33.898Z,51.42
2023-03-06T08:44:39.549Z,53.40
2023-03-06T08:47:45.135Z,50.55
2023-03-06T08:50:51.089Z,49.97
2023-03-06T08:53:58.301Z,51.42
2023-03-06T08:57:03.733Z,50.28
2023-03-06T09:00:11.151Z,47.83
2023-03-06T09:03:16.352Z,45.17
2023-03-06T09:06:22.141Z,45.05
2023-03-06T09:09:27.386Z,42.85
2023-03-06T09:12:47.262Z,43.50
2023-03-06T09:15:55.500Z,39.75
2023-03-06T09:19:01.395Z,37.45
2023-03-06T09:22:06.908Z,38.80
2023-03-06T09:25:14.233Z,39.33
2023-03-06T09:28:20.018Z,36.85
2023-03-06T09:31:25.563Z,36.42
2023-03-06T09:34:31.062Z,35.95
2023-03-06T09:37:36.845Z,31.23
2023-03-06T09:44:26.400Z,32.85
2023-03-06T09:48:00.233Z,30.17
2023-03-06T09:51:16.756Z,32.38
2023-03-06T09:54:34.771Z,32.28
2023-03-06T09:57:59.139Z,32.40
2023-03-06T10:01:12.413Z,33.47
2023-03-06T10:04:40.617Z,34.45
2023-03-06T10:07:53.675Z,35.08
2023-03-06T10:11:04.002Z,32.83
2023-03-06T10:14:35.094Z,33.83
2023-03-06T10:17:42.725Z,34.08
2023-03-06T10:21:00.938Z,32.72
2023-03-06T10:24:27.588Z,34.75
2023-03-06T10:27:48.952Z,31.23
2023-03-06T10:31:09.308Z,32.22
2023-03-06T10:34:44.709Z,31.50
2023-03-06T10:37:50.205Z,32.97
2023-03-06T10:41:13.261Z,29.30
2023-03-06T10:44:24.026Z,28.50
2023-03-06T10:47:35.556Z,29.10
2023-03-06T10:50:41.250Z,27.55
2023-03-06T10:54:14.495Z,28.38
2023-03-06T10:57:40.808Z,27.92
2023-03-06T11:00:46.379Z,28.52
2023-03-06T11:03:53.371Z,29.35
2023-03-06T11:07:19.559Z,27.60
2023-03-06T11:10:25.828Z,30.15
2023-03-06T11:13:36.005Z,30.23
2023-03-06T11:16:53.202Z,30.35
2023-03-06T11:20:48.564Z,28.83
2023-03-06T11:24:02.093Z,28.92
2023-03-06T11:27:35.007Z,30.48
2023-03-06T11:30:46.546Z,30.35
2023-03-06T11:37:32.606Z,27.77
2023-03-06T11:41:01.444Z,25.30
2023-03-06T11:44:28.379Z,26.02
2023-03-06T11:48:01.950Z,25.58
2023-03-06T11:51:17.561Z,28.50
2023-03-06T11:54:23.407Z,28.38
2023-03-06T11:58:12.095Z,24.50
2023-03-06T12:01:44.548Z,27.58
2023-03-06T12:05:21.471Z,27.83
2023-03-06T12:08:45.734Z,25.95
2023-03-06T12:11:56.440Z,25.55
2023-03-06T12:15:23.053Z,24.42
2023-03-06T12:18:56.640Z,24.77
2023-03-06T12:22:39.260Z,20.17
2023-03-06T12:26:09.329Z,21.00
2023-03-06T12:29:42.257Z,18.63
2023-03-06T12:33:08.793Z,19.65
2023-03-06T12:36:52.848Z,17.52
2023-03-06T12:40:39.579Z,18.35
2023-03-06T12:43:44.890Z,18.55
2023-03-06T12:46:57.647Z,18.20
2023-03-06T12:50:18.549Z,17.77
2023-03-06T12:53:29.867Z,19.33
2023-03-06T12:56:35.682Z,18.45
2023-03-06T12:59:49.614Z,17.23
2023-03-06T13:03:13.297Z,19.30
2023-03-06T13:06:55.474Z,18.42
2023-03-06T13:13:34.947Z,17.17
2023-03-06T13:16:40.312Z,18.80
2023-03-06T13:19:45.547Z,19.35
2023-03-06T13:22:50.545Z,17.75
2023-03-06T13:26:02.303Z,18.48
2023-03-06T13:29:38.553Z,17.17
2023-03-06T13:32:44.016Z,16.35
2023-03-06T13:35:54.145Z,16.35
2023-03-06T13:39:00.585Z,15.98
2023-03-06T13:42:07.445Z,16.55
2023-03-06T13:45:19.743Z,17.42
2023-03-06T13:48:45.457Z,17.80
2023-03-06T13:51:52.011Z,18.02
2023-03-06T13:55:09.463Z,16.55
2023-03-06T13:58:24.082Z,16.90
2023-03-06T14:01:41.826Z,17.17
2023-03-06T14:04:59.239Z,18.52
2023-03-06T14:08:15.529Z,19.67
2023-03-06T14:11:21.798Z,17.40
2023-03-06T14:14:39.935Z,19.98
2023-03-06T14:17:56.589Z,17.77
2023-03-06T14:21:05.819Z,16.63
2023-03-06T14:24:16.935Z,16.58
2023-03-06T14:27:47.356Z,16.42
2023-03-06T14:30:54.403Z,17.23
2023-03-06T14:34:07.284Z,17.45
2023-03-06T14:37:22.799Z,17.48
2023-03-06T14:40:40.938Z,18.65
2023-03-06T14:43:46.134Z,18.13
2023-03-06T14:47:32.130Z,17.55
2023-03-06T14:50:40.922Z,17.63
2023-03-06T14:53:49.604Z,16.50
2023-03-06T14:57:01.707Z,17.05
2023-03-06T15:00:08.307Z,17.25
2023-03-06T15:03:28.463Z,18.05
2023-03-06T15:06:38.494Z,16.13
2023-03-06T15:09:48.526Z,14.63
2023-03-06T15:12:54.383Z,16.63
2023-03-06T15:16:07.304Z,15.65
2023-03-06T15:19:22.040Z,15.15
2023-03-06T15:22:42.142Z,15.00
2023-03-06T15:26:43.593Z,17.27
2023-03-06T15:29:49.095Z,14.77
2023-03-06T15:33:27.087Z,16.08
2023-03-06T15:36:37.415Z,15.93
2023-03-06T15:39:43.487Z,14.93
2023-03-06T15:42:52.273Z,17.35
2023-03-06T15:46:01.077Z,15.55
2023-03-06T15:49:14.720Z,16.75
2023-03-06T15:52:21.005Z,15.02
2023-03-06T15:55:26.487Z,15.98
2023-03-06T15:58:34.184Z,16.52
2023-03-06T16:01:39.689Z,17.30
2023-03-06T16:04:46.186Z,16.27
2023-03-06T16:07:52.094Z,16.13
2023-03-06T16:10:58.462Z,15.88
2023-03-06T16:14:04.353Z,16.55
2023-03-06T16:17:12.430Z,16.20
2023-03-06T16:20:21.500Z,18.02
2023-03-06T16:23:27.018Z,15.27
2023-03-06T16:26:35.403Z,16.13
2023-03-06T16:29:40.659Z,15.02
2023-03-06T16:32:46.777Z,17.38
2023-03-06T16:35:52.445Z,16.80
2023-03-06T16:38:57.962Z,16.98
2023-03-06T16:42:03.021Z,17.50
2023-03-06T16:45:08.992Z,15.70
2023-03-06T16:48:17.210Z,18.00
2023-03-06T16:51:23.367Z,16.77
2023-03-06T16:54:28.558Z,17.40
2023-03-06T16:57:36.273Z,17.48
2023-03-06T17:00:42.570Z,17.50
2023-03-06T17:03:47.722Z,20.50
2023-03-06T17:06:53.480Z,16.52
2023-03-06T17:09:58.699Z,17.75
2023-03-06T17:13:05.435Z,18.98
2023-03-06T17:16:16.475Z,15.68
2023-03-06T17:19:21.947Z,17.45
2023-03-06T17:22:27.862Z,18.23
2023-03-06T17:25:35.178Z,18.00
2023-03-06T17:28:41.565Z,18.35
2023-03-06T17:31:47.117Z,16.80
2023-03-06T17:34:52.853Z,18.17
2023-03-06T17:37:58.437Z,17.45
2023-03-06T17:41:05.378Z,17.38
2023-03-06T17:44:12.456Z,16.20
2023-03-06T17:47:17.818Z,18.33
2023-03-06T17:50:23.305Z,19.13
2023-03-06T17:53:29.006Z,17.10
2023-03-06T17:56:33.949Z,19.10
2023-03-06T17:59:39.431Z,19.38
2023-03-06T18:02:45.629Z,19.10
2023-03-06T18:06:01.984Z,19.85
2023-03-06T18:09:07.994Z,19.45
2023-03-06T18:12:13.342Z,19.83
2023-03-06T18:15:19.236Z,21.27
2023-03-06T18:18:24.823Z,21.85
2023-03-06T18:21:30.108Z,21.80
2023-03-06T18:24:36.846Z,21.27
2023-03-06T18:27:42.437Z,20.67
2023-03-06T18:30:47.431Z,24.17
2023-03-06T18:33:54.197Z,20.60
2023-03-06T18:36:59.646Z,25.52
2023-03-06T18:40:04.843Z,24.45
2023-03-06T18:43:10.178Z,24.85
2023-03-06T18:46:15.542Z,24.40
2023-03-06T18:49:20.838Z,22.42
2023-03-06T18:52:26.077Z,25.23
2023-03-06T18:55:31.134Z,24.42
2023-03-06T18:58:36.783Z,23.92
2023-03-06T19:01:46.613Z,25.25
2023-03-06T19:04:53.149Z,23.83
2023-03-06T19:07:58.640Z,23.98
2023-03-06T19:11:06.252Z,23.08
2023-03-06T19:14:11.644Z,22.40
2023-03-06T19:17:17.054Z,23.25
2023-03-06T19:20:24.261Z,23.38
2023-03-06T19:23:29.676Z,27.13
2023-03-06T19:26:34.979Z,23.08
2023-03-06T19:29:40.366Z,23.92
2023-03-06T19:32:46.411Z,23.55
2023-03-06T19:35:52.132Z,24.48
2023-03-06T19:38:59.817Z,22.27
2023-03-06T19:42:05.610Z,24.77
2023-03-06T19:45:11.093Z,23.90
2023-03-06T19:48:17.934Z,22.10
2023-03-06T19:51:23.954Z,23.80
2023-03-06T19:54:32.159Z,24.92
2023-03-06T19:57:37.892Z,25.30
2023-03-06T20:00:43.362Z,25.83
2023-03-06T20:03:50.746Z,24.13
2023-03-06T20:06:56.622Z,25.10
2023-03-06T20:10:03.153Z,24.70
2023-03-06T20:13:08.815Z,26.05
2023-03-06T20:16:14.543Z,25.23
2023-03-06T20:19:20.574Z,26.83
2023-03-06T20:22:26.581Z,24.48
2023-03-06T20:25:32.087Z,25.10
2023-03-06T20:28:39.240Z,24.58
2023-03-06T20:31:44.722Z,23.90
2023-03-06T20:34:50.312Z,26.08
2023-03-06T20:37:55.870Z,25.55
2023-03-06T20:41:01.562Z,29.05
2023-03-06T20:44:10.065Z,26.60
2023-03-06T20:47:17.307Z,25.92
2023-03-06T20:50:23.422Z,25.40
2023-03-06T20:53:29.587Z,25.13
2023-03-06T20:56:41.812Z,27.58
2023-03-06T20:59:47.200Z,26.10
2023-03-06T21:02:52.782Z,30.10
2023-03-06T21:05:58.340Z,31.10
2023-03-06T21:09:06.304Z,32.58
2023-03-06T21:12:11.633Z,31.13
2023-03-06T21:15:17.258Z,33.63
2023-03-06T21:18:22.953Z,33.33
2023-03-06T21:21:33.070Z,31.60
2023-03-06T21:24:38.476Z,32.33
2023-03-06T21:27:44.214Z,31.38
2023-03-06T21:30:49.948Z,31.20
2023-03-06T21:33:56.555Z,31.73
2023-03-06T21:37:02.235Z,32.05
2023-03-06T21:40:09.081Z,31.67
2023-03-06T21:43:16.008Z,29.75
2023-03-06T21:46:21.325Z,30.05
2023-03-06T21:49:27.038Z,30.98
2023-03-06T21:52:32.502Z,31.35
2023-03-06T21:55:41.210Z,29.48
2023-03-06T21:58:47.366Z,29.85
2023-03-06T22:01:53.415Z,30.48
2023-03-06T22:04:58.967Z,30.25
2023-03-06T22:08:04.570Z,30.65
2023-03-06T22:11:16.567Z,29.00
2023-03-06T22:14:22.421Z,31.00
2023-03-06T22:17:28.262Z,29.67
2023-03-06T22:20:34.078Z,31.77
2023-03-06T22:23:40.958Z,29.65
2023-03-06T22:26:46.997Z,29.70
2023-03-06T22:29:53.682Z,31.10
2023-03-06T22:32:59.782Z,32.08
2023-03-06T22:36:10.204Z,32.72
2023-03-06T22:39:16.055Z,32.00
2023-03-06T22:42:21.570Z,31.35
2023-03-06T22:45:27.209Z,31.73
2023-03-06T22:48:33.024Z,31.80
2023-03-06T22:51:38.976Z,31.88
2023-03-06T22:54:46.196Z,33.28
2023-03-06T22:57:51.152Z,34.22
2023-03-06T23:00:56.729Z,33.03
2023-03-06T23:04:04.575Z,34.28
2023-03-06T23:07:10.025Z,34.05
2023-03-06T23:10:15.619Z,32.65
2023-03-06T23:13:40.617Z,31.55
2023-03-06T23:17:05.181Z,33.08
2023-03-06T23:20:29.963Z,32.60
2023-03-06T23:23:55.208Z,34.10
2023-03-06T23:27:00.397Z,33.33
2023-03-06T23:30:06.839Z,31.23
2023-03-06T23:33:12.598Z,34.72
2023-03-06T23:36:19.234Z,36.38
2023-03-06T23:42:43.946Z,31.65
2023-03-06T23:45:56.039Z,34.92
2023-03-06T23:49:01.578Z,32.65
2023-03-06T23:52:06.912Z,33.72
2023-03-06T23:55:12.493Z,37.38
2023-03-06T23:58:19.120Z,34.42
